Flight Track Log - Related Links

Times and Time Zones

All times are in EDT time to prevent confusion due to time zone crossing. See the 9Y-BGI flight status page for this flight to view local times or setup timezone preferences in your user account.

Time Position Orientation Groundspeed Altitude Reporting Facility
EDT Latitude Longitude Course Direction KTS MPH feet Rate Location/Type
Fri 15:34:00 17.9366 -75.2496 90° East  Level FlightAware Approximate
Fri 15:35:00 17.9361 -75.1098 90° East  Level FlightAware Approximate
Fri 15:36:00 17.9354 -74.9700 90° East  Level FlightAware Approximate
Fri 15:37:00 17.9347 -74.8302 90° East  Level FlightAware Approximate
Fri 15:38:00 17.9339 -74.6904 90° East  Level FlightAware Approximate
Fri 15:39:00 17.9298 -74.5507 90° East  Level Estimated
Fri 15:40:00 17.9315 -74.4109 89° East  Level FlightAware Approximate
Fri 15:41:00 17.9331 -74.2711 89° East  Level FlightAware Approximate
Fri 15:42:00 17.9286 -74.1314 90° East  Level Estimated
Fri 15:43:00 17.9287 -73.9916 90° East  Level FlightAware Approximate
Fri 15:44:00 17.9287 -73.8518 90° East  Level FlightAware Approximate
Fri 15:45:00 17.9286 -73.7120 90° East  Level FlightAware Approximate
Fri 15:46:00 17.9283 -73.5722 90° East  Level FlightAware Approximate
Fri 15:47:00 17.9280 -73.4324 90° East  Level FlightAware Approximate
Fri 15:48:00 17.9276 -73.2926 90° East  Level FlightAware Approximate
Fri 15:49:00 17.9271 -73.1528 90° East  Level FlightAware Approximate
Fri 15:50:00 17.9265 -73.0130 90° East  Level FlightAware Approximate
Fri 15:51:00 17.9258 -72.8732 90° East  Level FlightAware Approximate
Fri 15:52:00 17.9250 -72.7334 90° East  Level FlightAware Approximate
Fri 15:53:00 17.9241 -72.5936 90° East  Level FlightAware Approximate
Fri 15:54:00 17.9231 -72.4538 90° East  Level FlightAware Approximate
Fri 15:55:00 17.9219 -72.3140 90° East  Level FlightAware Approximate
Fri 15:56:00 17.9207 -72.1742 90° East  Level FlightAware Approximate
Fri 15:57:00 17.9195 -72.0345 91° East  Level FlightAware Approximate
Fri 15:58:00 17.9180 -71.8947 91° East  Level FlightAware Approximate
Fri 15:59:00 17.9108 -71.7551 90° East  Level Estimated
Fri 16:00:00 17.9035 -71.6155 85° East  Level Estimated
Fri 16:01:00 17.9179 -71.4766 84° East  Level FlightAware Approximate
Fri 16:02:00 17.9106 -71.3474 93° East  Level Estimated
Fri 16:03:00 17.9033 -71.2183 93° East  Level Estimated
Fri 16:04:00 17.8958 -71.0891 93° East  Level Estimated
Fri 16:05:00 17.8883 -70.9600 93° East  Level Estimated
Fri 16:06:00 17.8807 -70.8309 94° East  Level Estimated
Fri 16:07:00 17.8730 -70.7018 94° East  Level Estimated
Fri 16:08:00 17.8653 -70.5727 94° East  Level Estimated
Fri 16:09:00 17.8574 -70.4436 94° East  Level Estimated
Fri 16:10:00 17.8495 -70.3146 94° East  Level Estimated
Fri 16:11:00 17.8414 -70.1855 94° East  Level Estimated
Fri 16:12:00 17.8333 -70.0565 94° East  Level Estimated
Fri 16:13:00 17.8251 -69.9275 94° East  Level Estimated
Fri 16:14:00 17.8168 -69.7984 94° East  Level Estimated
Fri 16:15:00 17.8085 -69.6694 94° East  Level Estimated
Fri 16:16:00 17.8000 -69.5405 94° East  Level Estimated
Fri 16:17:00 17.7915 -69.4115 94° East  Level Estimated
Fri 16:18:00 17.7829 -69.2825 94° East  Level Estimated
Fri 16:19:00 17.7742 -69.1535 94° East  Level Estimated
Fri 16:20:00 17.7654 -69.0246 94° East  Level Estimated
Fri 16:21:00 17.7565 -68.8957 94° East  Level Estimated
Fri 16:22:00 17.7475 -68.7667 94° East  Level Estimated
Fri 16:23:00 17.7385 -68.6378 94° East  Level Estimated
Fri 16:24:00 17.7294 -68.5090 94° East  Level Estimated
Fri 16:25:00 17.7202 -68.3801 94° East  Level Estimated
Fri 16:26:00 17.7109 -68.2512 94° East  Level Estimated
Fri 16:26:29 18.1500 -68.3167 95° East 530 610 37,000  Level San Juan Center
Fri 16:27:00 17.7015 -68.1224 94° East  Level Estimated
Fri 16:27:29 18.1667 -68.1833 82° East 500 575 37,000  Level San Juan Center
Fri 16:28:00 17.6920 -67.9935 94° East  Level Estimated
Fri 16:28:29 18.1833 -68.0500 82° East 490 564 37,000  Level San Juan Center
Fri 16:29:00 17.6825 -67.8647 94° East  Level Estimated
Fri 16:29:30 18.1833 -67.9000 90° East 500 575 37,000  Level San Juan Center
Fri 16:30:00 17.6728 -67.7359 94° East  Level Estimated
Fri 16:30:30 18.1333 -67.7500 109° East 500 575 37,000  Level San Juan Center
Fri 16:31:00 17.6631 -67.6071 95° East  Level Estimated
Fri 16:31:30 18.0833 -67.6167 112° Southeast 510 587 37,000  Level San Juan Center
Fri 16:32:31 18.0333 -67.4667 109° East 510 587 37,000  Level San Juan Center
Fri 16:33:31 18.0167 -67.3333 97° East 520 598 37,000  Level San Juan Center
Fri 16:34:31 18.0000 -67.1833 97° East 510 587 37,000  Level San Juan Center
Fri 16:35:31 17.9667 -67.0333 103° East 510 587 37,000  Level San Juan Center
Fri 16:36:32 17.9500 -66.8833 97° East 510 587 37,000  Level San Juan Center
Fri 16:37:32 17.9333 -66.7500 97° East 510 587 37,000  Level San Juan Center
Fri 16:38:32 17.9167 -66.6000 97° East 510 587 37,000  Level San Juan Center
Fri 16:39:33 17.8833 -66.4500 103° East 510 587 37,000  Level San Juan Center
Fri 16:40:33 17.8667 -66.3000 97° East 520 598 37,000  Level San Juan Center
Fri 16:41:33 17.8333 -66.1167 101° East 520 598 37,000  Level San Juan Center
Fri 16:42:34 17.8167 -65.9833 97° East 510 587 37,000  Level San Juan Center
Fri 16:43:34 17.8000 -65.8333 97° East 500 575 37,000  Level San Juan Center
Fri 16:44:34 17.7833 -65.6833 97° East 510 587 37,000  Level San Juan Center
Fri 16:45:35 17.7500 -65.5333 103° East 510 587 37,000  Level San Juan Center
Fri 16:46:35 17.7333 -65.3833 97° East 520 598 37,000  Level San Juan Center
Fri 16:47:35 17.7000 -65.2333 103° East 520 598 37,000  Level San Juan Center
Fri 16:48:35 17.6833 -65.0833 97° East 520 598 37,000  Level San Juan Center
Fri 16:49:35 17.6500 -64.9333 103° East 520 598 37,000  Level San Juan Center
Fri 16:50:36 17.6333 -64.7833 97° East 520 598 37,000  Level San Juan Center
Fri 16:51:36 17.6167 -64.6333 97° East 520 598 37,000  Level San Juan Center
Fri 16:52:36 17.5833 -64.4833 103° East 520 598 37,000  Level San Juan Center
Fri 16:53:37 17.5667 -64.3333 97° East 520 598 37,000  Level San Juan Center
Fri 16:54:37 17.5333 -64.1833 103° East 520 598 37,000  Level San Juan Center
Fri 16:55:37 17.5167 -64.0333 97° East 520 598 37,000 -50 Level San Juan Center
Fri 16:56:38 17.4833 -63.8833 103° East 520 598 36,900 -1,388 Descending San Juan Center
Fri 16:57:38 17.4667 -63.7333 97° East 520 598 34,200 -2,450 Descending San Juan Center
Fri 16:58:38 17.4333 -63.5833 103° East 510 587 32,000 -2,182 Descending San Juan Center
Fri 16:59:39 17.4167 -63.4500 97° East 500 575 29,800 -2,132 Descending San Juan Center
Fri 17:00:39 17.4000 -63.3000 97° East 490 564 27,700 -2,000 Descending San Juan Center
Fri 17:01:39 17.3667 -63.1833 107° East 460 529 25,800 -1,934 Descending San Juan Center
Fri 17:02:40 17.3500 -63.0500 97° East 450 518 23,800 -1,967 Descending San Juan Center
Fri 17:04:00 17.3230 -62.8699 102° East  Level FlightAware Approximate
Fri 17:11:00 17.1461 -61.9304 102° East  Level FlightAware Approximate
Fri 17:12:00 17.1167 -61.7972 90° East  Level FlightAware Approximate
Fri 17:13:00 17.1367 -61.7927 90° East  Level Estimated
Fri 17:14:00 17.1367 -61.7927 90° East  Level Estimated
Fri 17:15:00 17.1367 -61.7927 90° East  Level Estimated
Fri 17:16:00 17.1367 -61.7927 90° East  Level Estimated
Fri 17:17:00 17.1367 -61.7927 90° East  Level Estimated
Fri 17:18:00 17.1367 -61.7927 90° East  Level Estimated
Fri 17:19:00 17.1367 -61.7927 90° East  Level Estimated
Fri 17:20:00 17.1367 -61.7927 90° East  Level Estimated
Fri 17:21:00 17.1367 -61.7927 90° East  Level Estimated
Fri 17:22:00 17.1367 -61.7927 90° East  Level Estimated
Fri 17:23:00 17.1367 -61.7927 90° East  Level Estimated
Fri 17:24:00 17.1367 -61.7927 90° East  Level Estimated
Fri 17:25:00 17.1367 -61.7927 90° East  Level Estimated

Login

Don't have an account? Register now (free) for customized features, flight alerts, and more!